sensor_id;sensor_type;location;lat;lon;timestamp;pressure;altitude;pressure_sealevel;temperature;humidity
48968;BME280;46511;53.148;8.204;2023-05-28T00:01:44;102229.16;;;12.27;100.00
48968;BME280;46511;53.148;8.204;2023-05-28T00:04:15;102238.22;;;12.23;100.00
48968;BME280;46511;53.148;8.204;2023-05-28T00:06:47;102229.03;;;12.30;100.00
48968;BME280;46511;53.148;8.204;2023-05-28T00:09:21;102235.97;;;12.35;100.00
48968;BME280;46511;53.148;8.204;2023-05-28T00:11:53;102235.28;;;12.29;100.00
48968;BME280;46511;53.148;8.204;2023-05-28T00:14:19;102231.16;;;12.22;100.00
48968;BME280;46511;53.148;8.204;2023-05-28T00:16:50;102238.53;;;12.16;100.00
48968;BME280;46511;53.148;8.204;2023-05-28T00:19:22;102234.22;;;12.12;100.00
48968;BME280;46511;53.148;8.204;2023-05-28T00:21:53;102235.09;;;12.12;100.00
48968;BME280;46511;53.148;8.204;2023-05-28T00:24:24;102228.03;;;12.11;100.00
48968;BME280;46511;53.148;8.204;2023-05-28T00:26:56;102229.91;;;12.09;100.00
48968;BME280;46511;53.148;8.204;2023-05-28T00:29:27;102221.84;;;12.11;100.00
48968;BME280;46511;53.148;8.204;2023-05-28T00:31:58;102232.94;;;12.00;100.00
48968;BME280;46511;53.148;8.204;2023-05-28T00:34:29;102227.03;;;11.92;100.00
48968;BME280;46511;53.148;8.204;2023-05-28T00:37:01;102236.00;;;11.89;100.00
48968;BME280;46511;53.148;8.204;2023-05-28T00:39:32;102226.94;;;11.95;100.00
48968;BME280;46511;53.148;8.204;2023-05-28T00:42:03;102229.53;;;11.96;100.00
48968;BME280;46511;53.148;8.204;2023-05-28T00:44:35;102237.69;;;11.92;100.00
48968;BME280;46511;53.148;8.204;2023-05-28T00:47:02;102234.44;;;11.84;100.00
48968;BME280;46511;53.148;8.204;2023-05-28T00:49:34;102238.16;;;11.80;100.00
48968;BME280;46511;53.148;8.204;2023-05-28T00:52:05;102236.09;;;11.88;100.00
48968;BME280;46511;53.148;8.204;2023-05-28T00:54:39;102225.44;;;11.88;100.00
48968;BME280;46511;53.148;8.204;2023-05-28T00:57:10;102231.63;;;11.88;100.00
48968;BME280;46511;53.148;8.204;2023-05-28T00:59:42;102218.09;;;11.93;100.00
48968;BME280;46511;53.148;8.204;2023-05-28T01:02:13;102222.34;;;11.98;100.00
48968;BME280;46511;53.148;8.204;2023-05-28T01:04:45;102224.81;;;12.03;100.00
48968;BME280;46511;53.148;8.204;2023-05-28T01:07:16;102230.13;;;12.03;100.00
48968;BME280;46511;53.148;8.204;2023-05-28T01:09:47;102221.41;;;11.99;100.00
48968;BME280;46511;53.148;8.204;2023-05-28T01:12:19;102221.59;;;11.95;100.00
48968;BME280;46511;53.148;8.204;2023-05-28T01:14:52;102218.09;;;11.93;100.00
48968;BME280;46511;53.148;8.204;2023-05-28T01:17:19;102213.72;;;11.92;100.00
48968;BME280;46511;53.148;8.204;2023-05-28T01:19:51;102221.03;;;11.87;100.00
48968;BME280;46511;53.148;8.204;2023-05-28T01:22:25;102217.75;;;11.79;100.00
48968;BME280;46511;53.148;8.204;2023-05-28T01:24:59;102216.31;;;11.70;100.00
48968;BME280;46511;53.148;8.204;2023-05-28T01:27:31;102214.47;;;11.72;100.00
48968;BME280;46511;53.148;8.204;2023-05-28T01:30:03;102218.06;;;11.71;100.00
48968;BME280;46511;53.148;8.204;2023-05-28T01:32:36;102208.91;;;11.78;100.00
48968;BME280;46511;53.148;8.204;2023-05-28T01:35:08;102206.00;;;11.86;100.00
48968;BME280;46511;53.148;8.204;2023-05-28T01:37:43;102216.75;;;11.83;100.00
48968;BME280;46511;53.148;8.204;2023-05-28T01:40:17;102206.72;;;11.89;100.00
48968;BME280;46511;53.148;8.204;2023-05-28T01:42:50;102207.94;;;11.81;100.00
48968;BME280;46511;53.148;8.204;2023-05-28T01:45:25;102209.25;;;11.69;100.00
48968;BME280;46511;53.148;8.204;2023-05-28T01:47:58;102210.47;;;11.60;100.00
48968;BME280;46511;53.148;8.204;2023-05-28T01:50:30;102207.31;;;11.51;100.00
48968;BME280;46511;53.148;8.204;2023-05-28T01:53:03;102211.97;;;11.44;100.00
48968;BME280;46511;53.148;8.204;2023-05-28T01:55:34;102214.91;;;11.38;100.00
48968;BME280;46511;53.148;8.204;2023-05-28T01:58:06;102219.50;;;11.33;100.00
48968;BME280;46511;53.148;8.204;2023-05-28T02:00:42;102211.66;;;11.30;100.00
48968;BME280;46511;53.148;8.204;2023-05-28T02:03:18;102222.03;;;11.36;100.00
48968;BME280;46511;53.148;8.204;2023-05-28T02:05:50;102213.13;;;11.37;100.00
48968;BME280;46511;53.148;8.204;2023-05-28T02:08:21;102209.50;;;11.39;100.00
48968;BME280;46511;53.148;8.204;2023-05-28T02:10:52;102212.03;;;11.42;100.00
48968;BME280;46511;53.148;8.204;2023-05-28T02:13:24;102210.09;;;11.48;100.00
48968;BME280;46511;53.148;8.204;2023-05-28T02:15:55;102214.56;;;11.47;100.00
48968;BME280;46511;53.148;8.204;2023-05-28T02:18:26;102207.25;;;11.52;100.00
48968;BME280;46511;53.148;8.204;2023-05-28T02:20:58;102212.50;;;11.54;100.00
48968;BME280;46511;53.148;8.204;2023-05-28T02:23:29;102214.28;;;11.53;100.00
48968;BME280;46511;53.148;8.204;2023-05-28T02:26:01;102212.56;;;11.52;100.00
48968;BME280;46511;53.148;8.204;2023-05-28T02:28:32;102217.88;;;11.52;100.00
48968;BME280;46511;53.148;8.204;2023-05-28T02:31:04;102219.63;;;11.53;100.00
48968;BME280;46511;53.148;8.204;2023-05-28T02:33:36;102218.00;;;11.49;100.00
48968;BME280;46511;53.148;8.204;2023-05-28T02:36:08;102212.91;;;11.43;100.00
48968;BME280;46511;53.148;8.204;2023-05-28T02:38:43;102212.09;;;11.41;100.00
48968;BME280;46511;53.148;8.204;2023-05-28T02:41:15;102212.09;;;11.41;100.00
48968;BME280;46511;53.148;8.204;2023-05-28T02:43:46;102215.69;;;11.40;100.00
48968;BME280;46511;53.148;8.204;2023-05-28T02:46:18;102205.13;;;11.38;100.00
48968;BME280;46511;53.148;8.204;2023-05-28T02:48:49;102204.13;;;11.41;100.00
48968;BME280;46511;53.148;8.204;2023-05-28T02:51:20;102202.34;;;11.41;100.00
48968;BME280;46511;53.148;8.204;2023-05-28T02:53:52;102196.16;;;11.41;100.00
48968;BME280;46511;53.148;8.204;2023-05-28T02:56:23;102199.59;;;11.43;100.00
48968;BME280;46511;53.148;8.204;2023-05-28T02:58:54;102196.94;;;11.43;100.00
48968;BME280;46511;53.148;8.204;2023-05-28T03:01:26;102208.50;;;11.42;100.00
48968;BME280;46511;53.148;8.204;2023-05-28T03:03:57;102200.75;;;11.36;100.00
48968;BME280;46511;53.148;8.204;2023-05-28T03:06:29;102201.00;;;11.30;100.00
48968;BME280;46511;53.148;8.204;2023-05-28T03:09:00;102203.41;;;11.36;100.00
48968;BME280;46511;53.148;8.204;2023-05-28T03:11:32;102205.28;;;11.34;100.00
48968;BME280;46511;53.148;8.204;2023-05-28T03:14:03;102206.19;;;11.33;100.00
48968;BME280;46511;53.148;8.204;2023-05-28T03:16:34;102209.66;;;11.35;100.00
48968;BME280;46511;53.148;8.204;2023-05-28T03:19:07;102207.72;;;11.40;100.00
48968;BME280;46511;53.148;8.204;2023-05-28T03:21:38;102206.50;;;11.49;100.00
48968;BME280;46511;53.148;8.204;2023-05-28T03:24:06;102211.69;;;11.52;100.00
48968;BME280;46511;53.148;8.204;2023-05-28T03:26:37;102220.41;;;11.57;100.00
48968;BME280;46511;53.148;8.204;2023-05-28T03:29:04;102215.53;;;11.68;100.00
48968;BME280;46511;53.148;8.204;2023-05-28T03:31:42;102213.28;;;11.81;100.00
48968;BME280;46511;53.148;8.204;2023-05-28T03:34:15;102202.97;;;11.95;100.00
48968;BME280;46511;53.148;8.204;2023-05-28T03:36:42;102202.53;;;12.06;100.00
48968;BME280;46511;53.148;8.204;2023-05-28T03:39:13;102207.50;;;12.15;100.00
48968;BME280;46511;53.148;8.204;2023-05-28T03:41:44;102201.72;;;12.25;100.00
48968;BME280;46511;53.148;8.204;2023-05-28T03:44:16;102200.41;;;12.36;100.00
48968;BME280;46511;53.148;8.204;2023-05-28T03:46:48;102206.69;;;12.55;100.00
48968;BME280;46511;53.148;8.204;2023-05-28T03:49:19;102206.44;;;12.61;100.00
48968;BME280;46511;53.148;8.204;2023-05-28T03:51:51;102199.91;;;12.68;100.00
48968;BME280;46511;53.148;8.204;2023-05-28T03:54:22;102198.72;;;12.75;100.00
48968;BME280;46511;53.148;8.204;2023-05-28T03:56:53;102199.91;;;12.88;100.00
48968;BME280;46511;53.148;8.204;2023-05-28T03:59:25;102192.16;;;13.03;100.00
48968;BME280;46511;53.148;8.204;2023-05-28T04:01:56;102190.03;;;13.11;100.00
48968;BME280;46511;53.148;8.204;2023-05-28T04:04:27;102185.69;;;13.29;100.00
48968;BME280;46511;53.148;8.204;2023-05-28T04:06:54;102189.69;;;13.58;100.00
48968;BME280;46511;53.148;8.204;2023-05-28T04:09:25;102187.09;;;13.75;100.00
48968;BME280;46511;53.148;8.204;2023-05-28T04:11:58;102187.72;;;13.80;100.00
48968;BME280;46511;53.148;8.204;2023-05-28T04:14:29;102189.00;;;13.90;100.00
48968;BME280;46511;53.148;8.204;2023-05-28T04:17:01;102192.97;;;14.00;100.00
48968;BME280;46511;53.148;8.204;2023-05-28T04:19:34;102193.25;;;14.13;100.00
48968;BME280;46511;53.148;8.204;2023-05-28T04:22:05;102189.13;;;14.42;100.00
48968;BME280;46511;53.148;8.204;2023-05-28T04:24:37;102192.34;;;14.32;100.00
48968;BME280;46511;53.148;8.204;2023-05-28T04:27:08;102188.31;;;14.23;100.00
48968;BME280;46511;53.148;8.204;2023-05-28T04:29:35;102187.84;;;14.32;100.00
48968;BME280;46511;53.148;8.204;2023-05-28T04:32:06;102191.22;;;14.36;100.00
48968;BME280;46511;53.148;8.204;2023-05-28T04:34:40;102192.00;;;14.38;100.00
48968;BME280;46511;53.148;8.204;2023-05-28T04:37:06;102190.44;;;14.52;100.00
48968;BME280;46511;53.148;8.204;2023-05-28T04:39:38;102195.47;;;14.40;100.00
48968;BME280;46511;53.148;8.204;2023-05-28T04:42:10;102206.25;;;14.38;100.00
48968;BME280;46511;53.148;8.204;2023-05-28T04:44:44;102193.56;;;14.61;100.00
48968;BME280;46511;53.148;8.204;2023-05-28T04:47:15;102194.75;;;14.72;100.00
48968;BME280;46511;53.148;8.204;2023-05-28T04:49:47;102191.03;;;14.75;100.00
48968;BME280;46511;53.148;8.204;2023-05-28T04:52:18;102192.38;;;15.01;100.00
48968;BME280;46511;53.148;8.204;2023-05-28T04:54:45;102187.22;;;15.13;100.00
48968;BME280;46511;53.148;8.204;2023-05-28T04:57:16;102186.03;;;15.35;100.00
48968;BME280;46511;53.148;8.204;2023-05-28T04:59:48;102177.28;;;15.15;100.00
48968;BME280;46511;53.148;8.204;2023-05-28T05:02:20;102186.41;;;15.29;100.00
48968;BME280;46511;53.148;8.204;2023-05-28T05:04:52;102182.13;;;15.25;100.00
48968;BME280;46511;53.148;8.204;2023-05-28T05:07:24;102188.84;;;15.49;100.00
48968;BME280;46511;53.148;8.204;2023-05-28T05:09:55;102189.84;;;15.80;100.00
48968;BME280;46511;53.148;8.204;2023-05-28T05:12:27;102183.16;;;16.34;100.00
48968;BME280;46511;53.148;8.204;2023-05-28T05:14:58;102187.50;;;16.05;100.00
48968;BME280;46511;53.148;8.204;2023-05-28T05:17:29;102181.75;;;16.27;100.00
48968;BME280;46511;53.148;8.204;2023-05-28T05:20:02;102184.19;;;16.32;100.00
48968;BME280;46511;53.148;8.204;2023-05-28T05:22:35;102198.91;;;16.70;100.00
48968;BME280;46511;53.148;8.204;2023-05-28T05:25:07;102196.47;;;16.66;100.00
48968;BME280;46511;53.148;8.204;2023-05-28T05:27:38;102201.72;;;16.67;100.00
48968;BME280;46511;53.148;8.204;2023-05-28T05:30:10;102194.72;;;16.50;100.00
48968;BME280;46511;53.148;8.204;2023-05-28T05:32:41;102192.41;;;16.74;100.00
48968;BME280;46511;53.148;8.204;2023-05-28T05:35:12;102185.44;;;17.00;100.00
48968;BME280;46511;53.148;8.204;2023-05-28T05:37:46;102192.44;;;17.03;100.00
48968;BME280;46511;53.148;8.204;2023-05-28T05:40:17;102188.59;;;16.78;100.00
48968;BME280;46511;53.148;8.204;2023-05-28T05:42:49;102191.06;;;16.51;100.00
48968;BME280;46511;53.148;8.204;2023-05-28T05:45:20;102191.38;;;16.61;100.00
48968;BME280;46511;53.148;8.204;2023-05-28T05:47:52;102190.09;;;16.22;100.00
48968;BME280;46511;53.148;8.204;2023-05-28T05:50:23;102197.28;;;16.22;100.00
48968;BME280;46511;53.148;8.204;2023-05-28T05:52:55;102188.41;;;16.66;100.00
48968;BME280;46511;53.148;8.204;2023-05-28T05:55:26;102194.66;;;17.10;100.00
48968;BME280;46511;53.148;8.204;2023-05-28T05:57:57;102198.38;;;16.94;100.00
48968;BME280;46511;53.148;8.204;2023-05-28T06:00:30;102200.69;;;17.71;100.00
48968;BME280;46511;53.148;8.204;2023-05-28T06:03:01;102207.91;;;17.85;100.00
48968;BME280;46511;53.148;8.204;2023-05-28T06:05:33;102205.38;;;17.67;100.00
48968;BME280;46511;53.148;8.204;2023-05-28T06:08:05;102207.78;;;17.86;100.00
48968;BME280;46511;53.148;8.204;2023-05-28T06:10:36;102210.28;;;17.61;100.00
48968;BME280;46511;53.148;8.204;2023-05-28T06:13:08;102204.34;;;17.41;100.00
48968;BME280;46511;53.148;8.204;2023-05-28T06:15:39;102207.19;;;17.95;100.00
48968;BME280;46511;53.148;8.204;2023-05-28T06:18:11;102199.31;;;18.73;100.00
48968;BME280;46511;53.148;8.204;2023-05-28T06:20:37;102198.16;;;19.16;100.00
48968;BME280;46511;53.148;8.204;2023-05-28T06:23:09;102201.44;;;20.90;100.00
48968;BME280;46511;53.148;8.204;2023-05-28T06:25:40;102199.03;;;21.76;94.25
48968;BME280;46511;53.148;8.204;2023-05-28T06:28:07;102192.41;;;22.35;90.84
48968;BME280;46511;53.148;8.204;2023-05-28T06:30:39;102191.88;;;23.15;85.53
48968;BME280;46511;53.148;8.204;2023-05-28T06:33:13;102188.94;;;24.17;73.34
48968;BME280;46511;53.148;8.204;2023-05-28T06:35:44;102188.09;;;24.27;70.22
48968;BME280;46511;53.148;8.204;2023-05-28T06:38:16;102194.41;;;24.46;67.24
48968;BME280;46511;53.148;8.204;2023-05-28T06:40:47;102192.75;;;25.21;64.44
48968;BME280;46511;53.148;8.204;2023-05-28T06:43:19;102192.19;;;25.08;63.48
48968;BME280;46511;53.148;8.204;2023-05-28T06:45:50;102198.84;;;24.47;69.39
48968;BME280;46511;53.148;8.204;2023-05-28T06:48:21;102206.06;;;23.28;71.70
48968;BME280;46511;53.148;8.204;2023-05-28T06:50:48;102198.16;;;22.94;79.50
48968;BME280;46511;53.148;8.204;2023-05-28T06:53:19;102216.97;;;21.88;87.35
48968;BME280;46511;53.148;8.204;2023-05-28T06:55:51;102208.78;;;22.33;86.77
48968;BME280;46511;53.148;8.204;2023-05-28T06:58:18;102212.84;;;23.43;73.23
48968;BME280;46511;53.148;8.204;2023-05-28T07:00:49;102215.09;;;24.18;70.81
48968;BME280;46511;53.148;8.204;2023-05-28T07:03:15;102211.78;;;25.58;63.00
48968;BME280;46511;53.148;8.204;2023-05-28T07:05:47;102214.44;;;25.41;59.63
48968;BME280;46511;53.148;8.204;2023-05-28T07:08:18;102209.28;;;27.17;54.94
48968;BME280;46511;53.148;8.204;2023-05-28T07:10:49;102218.19;;;27.53;51.00
48968;BME280;46511;53.148;8.204;2023-05-28T07:13:21;102209.66;;;27.56;50.47
48968;BME280;46511;53.148;8.204;2023-05-28T07:15:47;102217.81;;;28.41;47.65
48968;BME280;46511;53.148;8.204;2023-05-28T07:18:18;102215.78;;;28.84;45.91
48968;BME280;46511;53.148;8.204;2023-05-28T07:20:45;102214.91;;;27.84;45.85
48968;BME280;46511;53.148;8.204;2023-05-28T07:23:16;102219.19;;;29.10;44.37
48968;BME280;46511;53.148;8.204;2023-05-28T07:25:47;102216.53;;;30.88;41.59
48968;BME280;46511;53.148;8.204;2023-05-28T07:28:19;102215.09;;;30.78;39.02
48968;BME280;46511;53.148;8.204;2023-05-28T07:30:45;102212.13;;;32.27;35.77
48968;BME280;46511;53.148;8.204;2023-05-28T07:33:17;102211.84;;;32.22;34.17
48968;BME280;46511;53.148;8.204;2023-05-28T07:35:48;102210.88;;;33.21;32.96
48968;BME280;46511;53.148;8.204;2023-05-28T07:38:15;102208.69;;;33.10;33.67
48968;BME280;46511;53.148;8.204;2023-05-28T07:40:46;102209.28;;;32.35;34.10
48968;BME280;46511;53.148;8.204;2023-05-28T07:43:17;102211.44;;;34.41;31.60
48968;BME280;46511;53.148;8.204;2023-05-28T07:45:49;102208.97;;;31.43;34.15
48968;BME280;46511;53.148;8.204;2023-05-28T07:48:20;102199.22;;;31.40;32.95
48968;BME280;46511;53.148;8.204;2023-05-28T07:50:52;102203.06;;;32.11;32.19
48968;BME280;46511;53.148;8.204;2023-05-28T07:53:23;102204.66;;;32.85;32.16
48968;BME280;46511;53.148;8.204;2023-05-28T07:55:51;102205.47;;;34.77;30.29
48968;BME280;46511;53.148;8.204;2023-05-28T07:58:19;102200.38;;;34.47;31.03
48968;BME280;46511;53.148;8.204;2023-05-28T08:00:50;102198.22;;;33.34;31.85
48968;BME280;46511;53.148;8.204;2023-05-28T08:03:22;102202.44;;;35.31;30.55
48968;BME280;46511;53.148;8.204;2023-05-28T08:05:55;102202.44;;;34.25;30.00
48968;BME280;46511;53.148;8.204;2023-05-28T08:08:27;102199.53;;;32.82;31.62
48968;BME280;46511;53.148;8.204;2023-05-28T08:10:58;102200.63;;;33.43;31.31
48968;BME280;46511;53.148;8.204;2023-05-28T08:13:30;102200.16;;;34.55;30.55
48968;BME280;46511;53.148;8.204;2023-05-28T08:16:01;102202.38;;;33.99;30.36
48968;BME280;46511;53.148;8.204;2023-05-28T08:18:33;102202.22;;;32.75;31.55
48968;BME280;46511;53.148;8.204;2023-05-28T08:21:07;102199.22;;;32.06;32.88
48968;BME280;46511;53.148;8.204;2023-05-28T08:23:34;102198.03;;;33.76;30.62
48968;BME280;46511;53.148;8.204;2023-05-28T08:26:05;102202.72;;;34.83;29.54
48968;BME280;46511;53.148;8.204;2023-05-28T08:28:37;102201.81;;;33.69;29.62
48968;BME280;46511;53.148;8.204;2023-05-28T08:31:08;102205.59;;;33.55;30.08
48968;BME280;46511;53.148;8.204;2023-05-28T08:33:39;102193.34;;;33.29;29.57
48968;BME280;46511;53.148;8.204;2023-05-28T08:36:11;102202.63;;;33.56;30.24
48968;BME280;46511;53.148;8.204;2023-05-28T08:38:42;102203.56;;;31.79;31.73
48968;BME280;46511;53.148;8.204;2023-05-28T08:41:14;102204.53;;;34.10;30.52
48968;BME280;46511;53.148;8.204;2023-05-28T08:43:45;102203.59;;;33.83;30.78
48968;BME280;46511;53.148;8.204;2023-05-28T08:46:17;102201.88;;;34.76;29.83
48968;BME280;46511;53.148;8.204;2023-05-28T08:48:49;102209.34;;;32.63;30.83
48968;BME280;46511;53.148;8.204;2023-05-28T08:51:23;102201.69;;;32.37;31.58
48968;BME280;46511;53.148;8.204;2023-05-28T08:53:58;102197.56;;;32.76;29.06
48968;BME280;46511;53.148;8.204;2023-05-28T08:56:31;102196.88;;;32.88;29.94
48968;BME280;46511;53.148;8.204;2023-05-28T08:59:02;102203.97;;;31.97;31.77
48968;BME280;46511;53.148;8.204;2023-05-28T09:01:35;102196.44;;;33.95;29.55
48968;BME280;46511;53.148;8.204;2023-05-28T09:04:02;102200.34;;;33.32;29.43
48968;BME280;46511;53.148;8.204;2023-05-28T09:06:37;102192.66;;;34.03;28.64
48968;BME280;46511;53.148;8.204;2023-05-28T09:09:09;102188.06;;;34.76;27.08
48968;BME280;46511;53.148;8.204;2023-05-28T09:11:40;102191.72;;;32.57;29.18
48968;BME280;46511;53.148;8.204;2023-05-28T09:14:12;102183.31;;;35.30;26.70
48968;BME280;46511;53.148;8.204;2023-05-28T09:16:45;102189.28;;;35.40;26.28
48968;BME280;46511;53.148;8.204;2023-05-28T09:19:16;102187.34;;;34.08;26.91
48968;BME280;46511;53.148;8.204;2023-05-28T09:21:52;102187.38;;;35.20;26.47
48968;BME280;46511;53.148;8.204;2023-05-28T09:24:23;102191.03;;;34.81;26.49
48968;BME280;46511;53.148;8.204;2023-05-28T09:26:58;102189.56;;;35.76;26.50
48968;BME280;46511;53.148;8.204;2023-05-28T09:29:29;102190.88;;;35.61;25.01
48968;BME280;46511;53.148;8.204;2023-05-28T09:32:01;102189.84;;;36.07;23.44
48968;BME280;46511;53.148;8.204;2023-05-28T09:34:32;102198.97;;;36.95;23.54
48968;BME280;46511;53.148;8.204;2023-05-28T09:37:04;102202.09;;;34.81;25.49
48968;BME280;46511;53.148;8.204;2023-05-28T09:39:32;102201.66;;;35.17;25.25
48968;BME280;46511;53.148;8.204;2023-05-28T09:42:04;102208.03;;;34.65;27.18
48968;BME280;46511;53.148;8.204;2023-05-28T09:44:40;102195.56;;;36.43;24.36
48968;BME280;46511;53.148;8.204;2023-05-28T09:47:14;102199.09;;;35.81;24.78
48968;BME280;46511;53.148;8.204;2023-05-28T09:49:46;102197.75;;;38.01;22.71
48968;BME280;46511;53.148;8.204;2023-05-28T09:52:19;102185.56;;;35.66;23.92
48968;BME280;46511;53.148;8.204;2023-05-28T09:54:52;102195.34;;;36.70;25.46
48968;BME280;46511;53.148;8.204;2023-05-28T09:57:29;102192.66;;;36.88;22.34
48968;BME280;46511;53.148;8.204;2023-05-28T10:00:02;102191.03;;;38.50;21.32
48968;BME280;46511;53.148;8.204;2023-05-28T10:05:28;102190.09;;;37.85;20.22
48968;BME280;46511;53.148;8.204;2023-05-28T10:08:03;102184.75;;;35.59;22.66
48968;BME280;46511;53.148;8.204;2023-05-28T10:10:36;102188.81;;;36.32;23.13
48968;BME280;46511;53.148;8.204;2023-05-28T10:13:10;102184.13;;;38.29;20.92
48968;BME280;46511;53.148;8.204;2023-05-28T10:15:43;102176.06;;;38.63;20.26
48968;BME280;46511;53.148;8.204;2023-05-28T10:18:14;102179.91;;;38.50;20.28
48968;BME280;46511;53.148;8.204;2023-05-28T10:20:47;102185.25;;;35.81;22.32
48968;BME280;46511;53.148;8.204;2023-05-28T10:23:19;102186.69;;;36.28;22.40
48968;BME280;46511;53.148;8.204;2023-05-28T10:25:53;102177.38;;;36.79;21.19
48968;BME280;46511;53.148;8.204;2023-05-28T10:28:25;102183.84;;;37.16;20.88
48968;BME280;46511;53.148;8.204;2023-05-28T10:31:08;102184.66;;;37.90;20.18
48968;BME280;46511;53.148;8.204;2023-05-28T10:33:42;102186.72;;;37.64;20.07
48968;BME280;46511;53.148;8.204;2023-05-28T10:36:15;102186.25;;;37.49;19.70
48968;BME280;46511;53.148;8.204;2023-05-28T10:38:42;102181.38;;;38.11;19.86
48968;BME280;46511;53.148;8.204;2023-05-28T10:41:30;102177.06;;;36.05;20.92
48968;BME280;46511;53.148;8.204;2023-05-28T10:44:06;102188.69;;;36.52;19.60
48968;BME280;46511;53.148;8.204;2023-05-28T10:46:41;102183.19;;;37.39;19.54
48968;BME280;46511;53.148;8.204;2023-05-28T10:49:16;102184.50;;;36.93;20.70
48968;BME280;46511;53.148;8.204;2023-05-28T10:57:07;102184.13;;;35.57;21.75
48968;BME280;46511;53.148;8.204;2023-05-28T10:59:49;102191.72;;;37.56;19.16
48968;BME280;46511;53.148;8.204;2023-05-28T11:02:24;102189.00;;;36.06;19.72
48968;BME280;46511;53.148;8.204;2023-05-28T11:04:58;102181.56;;;37.98;18.61
48968;BME280;46511;53.148;8.204;2023-05-28T11:07:35;102178.50;;;36.46;20.68
48968;BME280;46511;53.148;8.204;2023-05-28T11:10:09;102183.31;;;36.26;19.01
48968;BME280;46511;53.148;8.204;2023-05-28T11:12:43;102184.84;;;35.12;19.55
48968;BME280;46511;53.148;8.204;2023-05-28T11:15:19;102184.78;;;36.28;18.52
48968;BME280;46511;53.148;8.204;2023-05-28T11:17:52;102176.44;;;36.92;20.00
48968;BME280;46511;53.148;8.204;2023-05-28T11:20:24;102183.97;;;35.38;19.37
48968;BME280;46511;53.148;8.204;2023-05-28T11:22:56;102175.53;;;38.31;16.91
48968;BME280;46511;53.148;8.204;2023-05-28T11:25:28;102181.19;;;37.46;17.90
48968;BME280;46511;53.148;8.204;2023-05-28T11:27:59;102168.78;;;36.37;18.75
48968;BME280;46511;53.148;8.204;2023-05-28T11:30:31;102177.31;;;37.29;18.45
48968;BME280;46511;53.148;8.204;2023-05-28T11:33:03;102184.28;;;38.16;17.77
48968;BME280;46511;53.148;8.204;2023-05-28T11:35:34;102171.63;;;35.86;18.41
48968;BME280;46511;53.148;8.204;2023-05-28T11:38:06;102181.25;;;35.12;19.34
48968;BME280;46511;53.148;8.204;2023-05-28T11:40:37;102178.47;;;36.78;17.36
48968;BME280;46511;53.148;8.204;2023-05-28T11:43:08;102174.22;;;36.50;19.09
48968;BME280;46511;53.148;8.204;2023-05-28T11:45:40;102184.41;;;38.63;18.11
48968;BME280;46511;53.148;8.204;2023-05-28T11:48:12;102175.81;;;38.53;17.58
48968;BME280;46511;53.148;8.204;2023-05-28T11:50:44;102187.97;;;36.32;18.92
48968;BME280;46511;53.148;8.204;2023-05-28T11:53:15;102184.72;;;36.42;20.28
48968;BME280;46511;53.148;8.204;2023-05-28T11:55:47;102184.16;;;35.43;19.90
48968;BME280;46511;53.148;8.204;2023-05-28T11:58:27;102184.63;;;35.27;18.38
48968;BME280;46511;53.148;8.204;2023-05-28T12:01:00;102177.31;;;36.36;17.75
48968;BME280;46511;53.148;8.204;2023-05-28T12:03:27;102180.75;;;36.87;18.78
48968;BME280;46511;53.148;8.204;2023-05-28T12:05:58;102179.22;;;36.03;18.11
48968;BME280;46511;53.148;8.204;2023-05-28T12:08:30;102171.31;;;35.62;19.14
48968;BME280;46511;53.148;8.204;2023-05-28T12:11:01;102180.13;;;35.39;19.50
48968;BME280;46511;53.148;8.204;2023-05-28T12:13:34;102179.56;;;35.11;19.60
48968;BME280;46511;53.148;8.204;2023-05-28T12:16:10;102172.53;;;34.22;19.84
48968;BME280;46511;53.148;8.204;2023-05-28T12:18:42;102175.13;;;36.44;18.95
48968;BME280;46511;53.148;8.204;2023-05-28T12:21:14;102173.22;;;34.97;19.68
48968;BME280;46511;53.148;8.204;2023-05-28T12:23:52;102172.22;;;36.32;19.87
48968;BME280;46511;53.148;8.204;2023-05-28T12:26:25;102165.88;;;35.42;20.26
48968;BME280;46511;53.148;8.204;2023-05-28T12:28:58;102164.66;;;35.25;19.61
48968;BME280;46511;53.148;8.204;2023-05-28T12:31:29;102163.44;;;34.55;21.36
48968;BME280;46511;53.148;8.204;2023-05-28T12:34:01;102168.63;;;33.42;23.01
48968;BME280;46511;53.148;8.204;2023-05-28T12:36:33;102167.25;;;34.80;20.74
48968;BME280;46511;53.148;8.204;2023-05-28T12:39:05;102156.84;;;35.67;20.08
48968;BME280;46511;53.148;8.204;2023-05-28T12:41:36;102159.00;;;35.65;21.22
48968;BME280;46511;53.148;8.204;2023-05-28T12:44:08;102168.34;;;34.59;21.44
48968;BME280;46511;53.148;8.204;2023-05-28T12:46:39;102162.88;;;35.44;21.24
48968;BME280;46511;53.148;8.204;2023-05-28T12:49:10;102157.44;;;36.14;22.49
48968;BME280;46511;53.148;8.204;2023-05-28T12:51:42;102172.38;;;35.68;24.61
48968;BME280;46511;53.148;8.204;2023-05-28T12:54:13;102169.41;;;33.77;26.24
48968;BME280;46511;53.148;8.204;2023-05-28T12:56:45;102160.06;;;33.72;28.32
48968;BME280;46511;53.148;8.204;2023-05-28T12:59:23;102164.97;;;33.76;27.94
48968;BME280;46511;53.148;8.204;2023-05-28T13:01:58;102153.72;;;33.78;27.32
48968;BME280;46511;53.148;8.204;2023-05-28T13:04:29;102163.91;;;33.77;28.12
48968;BME280;46511;53.148;8.204;2023-05-28T13:07:00;102157.91;;;34.22;27.46
48968;BME280;46511;53.148;8.204;2023-05-28T13:09:32;102151.13;;;33.22;29.59
48968;BME280;46511;53.148;8.204;2023-05-28T13:12:03;102152.22;;;33.28;29.52
48968;BME280;46511;53.148;8.204;2023-05-28T13:14:35;102147.38;;;31.52;33.13
48968;BME280;46511;53.148;8.204;2023-05-28T13:17:06;102155.34;;;31.76;31.99